Elysian, MN (56028)

7:31 PM CDT on March 29, 2015 (GMT -0500)
North East Blue Earth County, Minnesota | | Change Station
CLOSE
Current Station
Personal Weather Station
Location: Eagle Lake, MN
Elevation: 1010 ft
Nearby Weather Stations

Elev 1010 ft 44.17 °N, 93.84 °W | Updated 12 minutes ago

Clear
Clear
49.0 °F
Feels Like 46 °F
N
8.0
Wind Variable Wind from NNW
Gusts 14.0 mph

Today
High -- | Low -- °F
--% Chance of Precip.
Yesterday
High -- | Low -- °F
Precip. -- in
7:01 AM 7:38 PM
Waxing Gibbous, 75% visible
Pressure 29.93 in
Visibility 10.0 miles
Clouds Clear
Windchill 46 °F
Dew Point 34 °F
Humidity 57%
Rainfall 0.02 in
Snow Depth Not available.
UV 0 out of 12
Pollen 3.90 out of 12
Air Quality Not available.
Flu Activity Not available.
METAR KMKT 300015Z AUTO 32019G23KT 10SM CLR 10/M01 A2993 RMK AO1

More Conditions Fewer Conditions

Pressure 29.93 in
Visibility 10.0 miles
Clouds Clear
Windchill 46 °F
Dew Point 34 °F
Humidity 57%
Rainfall 0.02 in
Snow Depth Not available.
UV 0 out of 12
Pollen 3.90 out of 12
Air Quality Not available.
Flu Activity Not available.
METAR KMKT 300015Z AUTO 32019G23KT 10SM CLR 10/M01 A2993 RMK AO1

More Conditions Fewer Conditions

10-Day Weather Forecast

Almanac

Astronomy

Mar. 29, 2015 Rise Set
Actual Time
Civil Twilight
Nautical Twilight
Astronomical Twilight
Moon
Length of Visible Light
Length of Day
Tomorrow will be .
, % of the Moon is Illuminated

Today's Extremes

State Highs State Lows

Community

WunderPhotos

Upload Photos

1,809,387 photos uploaded!

WunderBlogs® & News

Nearby

Air Quality

  Air Quality AQ Index Pollutant
Not available.

Snow Depth

Station Depth Elevation

Earthquake Activity

City Distance Mag. Time & Date
Minimum magnitude displayed is 2.5.

Coastal Water Temperatures

Place Temperature

Stations

Nearby Weather Stations

Station Location Temp. Windchill Dew Point Humidity Wind Precip. Elev Updated Type